Tiempo atmosférico en la estación meteorológica de Robledo De Chavela, Madrid (790 m.)



Fecha
DESCASC
Temp. máxima en grados centígrados (hora)
DESCASC
Temp. mínima en grados centígrados (hora)
DESCASC
Temp. media en grados centígrados
DESCASC
Racha de viento máxima en m/sg (hora)
DESCASC
Velocidad máxima media en intervalos de 10 minutos(hora)
DESCASC
Precipitaciones diarias en mm
DESCASC
Precipitaciones de 00:00 a 06:00 en mm
DESCASC
Precipitaciones de 06:00 a 12:00 en mm
DESCASC
Precipitaciones de 12:00 a 18:00 en mm
DESCASC
Precipitaciones de 18:00 a 24:00 en mm
DESCASC
08-12-2019 11.9 (20:50) 0.9 (09:00) 6.4 8.33 (21:30) 3.89 (23:59) 0.4 0.1 0.1 0.1 0.1
07-12-2019 12.8 (14:50) 1.8 (08:40) 7.3 3.61 (15:40) 2.22 (16:00) 0.3 0 0.1 0.1 0.1
06-12-2019 12.8 (15:30) 3.8 (23:20) 8.3 5.56 (11:30) 3.61 (11:30) 0.1 0 0 0 0.1
05-12-2019 11.9 (15:40) 5.6 (00:00) 8.7 13.89 (14:10) 4.72 (12:10) 0.4 0.1 0.1 0.1 0.1
04-12-2019 10.6 (15:30) 4.7 (00:00) 7.7 6.67 (14:40) 3.61 (02:00) 0.3 0 0.1 0.1 0.1
03-12-2019 10.7 (15:00) 0.8 (00:00) 5.7 5 (12:10) 2.78 (12:20) 0.4 0.1 0.1 0.1 0.1
02-12-2019 10.8 (14:30) 3.3 (00:00) 7.1 11.94 (12:20) 6.94 (12:20) 0.4 0.1 0.1 0.1 0.1
01-12-2019 7.8 (00:20) 2.3 (00:00) 5.1 6.39 (22:50) 3.61 (12:10) 0.3 0.1 0 0.1 0.1
30-11-2019 12.8 (12:20) 6.4 (00:00) 9.6 15 (21:10) 6.67 (21:10) 0.3 0.1 0.1 0 0.1
29-11-2019 13.6 (14:30) 9.8 (00:00) 11.7 7.22 (00:20) 3.61 (00:50) 0.3 0 0.1 0.1 0.1
28-11-2019 11.4 (13:30) 5.6 (00:00) 8.5 10.83 (18:30) 5 (18:20) 0.3 0.1 0 0.1 0.1
27-11-2019 12 (13:20) 5.8 (00:00) 8.9 12.22 (00:20) 5.56 (00:20) 0.3 0.1 0 0.1 0.1
26-11-2019 13.5 (14:10) 5.9 (00:00) 9.7 14.44 (21:40) 7.22 (21:40) 0.3 0.1 0 0.1 0.1
25-11-2019 15.7 (14:20) 6.7 (00:00) 11.2 9.17 (01:40) 3.89 (00:30) 0.3 0.1 0.1 0 0.1
24-11-2019 11.7 (14:30) 5.3 (00:00) 8.5 9.72 (04:00) 5 (11:00) 0.2 0 0.1 0 0.1
23-11-2019 11.2 (15:40) 5.7 (00:00) 8.4 15.56 (07:30) 7.5 (06:10) 0.3 0.1 0.1 0 0.1
22-11-2019 10.8 (17:20) 5.3 (00:00) 8.1 14.72 (23:20) 6.67 (23:10) 0.3 0.1 0 0.1 0.1
21-11-2019 7.9 (16:30) 2.4 (00:00) 5.2 3.61 (16:20) 1.67 (15:10) 0.3 0.1 0.1 0 0.1
20-11-2019 6.7 (12:50) 1.6 (00:00) 4.1 3.61 (14:00) 1.94 (11:30) 0.3 0 0.2 0.1 0
19-11-2019 9.4 (14:40) -0.1 (00:00) 4.6 8.33 (00:30) 4.44 (01:30) 0.2 0 0.1 0 0.1
18-11-2019 9.5 (12:50) 4 (00:00) 6.8 16.39 (05:40) 8.33 (06:00) 0.2 0 0.1 0 0.1
17-11-2019 8 (16:20) 2.7 (00:00) 5.4 16.11 (19:30) 5.28 (19:30) 0.3 0.1 0 0.1 0.1
16-11-2019 10 (14:40) 2.1 (00:00) 6 12.5 (09:50) 6.94 (09:40) 0.2 0.1 0 0.1 0
15-11-2019 7.5 (14:10) 3 (00:00) 5.3 12.5 (01:20) 6.11 (01:00) 0.2 0.1 0 0.1 0
14-11-2019 11 (00:10) 3.9 (00:00) 7.5 18.06 (08:10) 5.83 (07:50) 0.2 0 0.1 0.1 0
13-11-2019 14.9 (13:30) 8.6 (00:00) 11.8 13.61 (10:50) 5.56 (03:10) 0.3 0.1 0.1 0 0.1
12-11-2019 12.9 (17:00) 3.2 (00:00) 8 9.72 (10:30) 5.28 (10:30) 0.2 0.1 0 0 0.1

Gráficas

Temp. máximas Temp. mínimas Temp. medias Precipitaciones Rachas de viento máximas Velocidades máximas media en intervalos de 10 minutos

Datos horarios

Fecha y hora oficial Temperatura (ºC) Velocidad del viento (km/h) Dirección del viento Racha (km/h) Dirección de racha Precipitación (mm) Presión (hPa) Tendencia (hPa) Humedad (%)
2019-12-11 23:00:00 5.3 8 Noroeste 27 Noroeste 0.1 936.1 -0.5 51
2019-12-11 22:00:00 5.6 16 Noroeste 29 Norte 0 936.4 0.4 49
2019-12-11 21:00:00 5.3 9 Noroeste 39 Noroeste 0.1 936.6 1.3 51
2019-12-11 20:00:00 6.1 16 Noroeste 42 Noroeste 0 936.6 1.9 49
2019-12-11 19:00:00 6.7 15 Noroeste 45 Noroeste 0.1 936 1.7 49
2019-12-11 18:00:00 7.6 15 Noroeste 40 Noroeste 0.1 935.3 1.3 46
2019-12-11 17:00:00 8.4 9 Noroeste 41 Noroeste 0 934.7 1.3 40
2019-12-11 16:00:00 8.6 17 Noroeste 41 Noroeste 0.1 934.3 0.2 42
2019-12-11 15:00:00 8.6 17 Noroeste 52 Noroeste 0.1 934 -0.5 44
2019-12-11 14:00:00 8.7 18 Noroeste 47 Norte 0.1 933.4 -0.6 48
2019-12-11 13:00:00 9 20 Noroeste 46 Noroeste 0.1 934.1 -0.1 51
2019-12-11 12:00:00 9 8 Oeste 29 Oeste 0.1 934.5 0.8 64
2019-12-11 11:00:00 5.4 0 Calma 12 Nordeste 0.1 934 0.3 89
2019-12-11 10:00:00 1.5 2 Sudoeste 5 Sudoeste 0.2 934.2 0.5 89
2019-12-11 09:00:00 0.9 0 Calma 7 Nordeste 0.2 933.7 -0.2 89
2019-12-11 08:00:00 0.4 3 Nordeste 5 Nordeste 0.2 933.7 -0.6 89
2019-12-11 07:00:00 0.5 0 Calma 12 Nordeste 0.3 933.7 -0.7 89
2019-12-11 06:00:00 0.1 3 Nordeste 8 Nordeste 0.1 933.9 -1.1 88
2019-12-11 05:00:00 -0.2 0 Calma 9 Norte 0.1 934.3 -1.1 88
2019-12-11 04:00:00 1 4 Nordeste 9 Nordeste 0.1 934.4 -1.4 88
2019-12-11 03:00:00 1.3 0 Calma 7 Norte 0.1 935 -1 88
2019-12-11 02:00:00 1.1 0 Calma 11 Nordeste 0.1 935.4 -0.7 88
2019-12-11 01:00:00 1.4 6 Nordeste 11 Nordeste 0.1 935.8 -0.6 88
2019-12-11 00:00:00 1.1 4 Nordeste 8 Nordeste 0.1 936 -0.6 87
2019-12-10 23:00:00 2 3 Nordeste 8 Norte 0.1 936.1 -0.5 87
2019-12-10 22:00:00 1.9 0 Calma 5 Sudoeste 0.2 936.4 -0.4 87
2019-12-10 21:00:00 3.3 3 Nordeste 9 Nordeste 0.1 936.6 -0.4 86
2019-12-10 20:00:00 3.1 0 Calma 7 Nordeste 0.2 936.6 -0.9 85
2019-12-10 19:00:00 3.9 2 Nordeste 6 Nordeste 0.2 936.8 -0.9 83
2019-12-10 18:00:00 5 0 Calma 5 Oeste 0.3 937 -1.1 81
2019-12-10 17:00:00 5.4 2 Sur 7 Este 0.3 937.5 -0.9 78
2019-12-10 16:00:00 5.3 4 Nordeste 8 Nordeste 0.4 937.7 -1 79
2019-12-10 15:00:00 4.1 6 Este 13 Este 0.4 938.1 -1.4 82
2019-12-10 14:00:00 5.7 7 Sudeste 13 Este 0.6 938.4 -2 78
2019-12-10 13:00:00 6.9 5 Sudoeste 10 Sudoeste 0.8 938.7 -1.4 67
2019-12-10 12:00:00 5 4 Sur 10 Sudoeste 1 939.5 -0.6 78
2019-12-10 11:00:00 3.2 5 Sudoeste 9 Sudoeste 1.2 940.4 0.4 84
2019-12-10 10:00:00 1.2 0 Calma 8 Nordeste 0 940.1 -0.1 88
2019-12-10 09:00:00 -1.6 3 Este 4 Este 0 940.1 -0.1 88
2019-12-10 08:00:00 -1.9 0 Calma 9 Este 0.5 940 -0.1 88
2019-12-10 07:00:00 -0.9 2 Noroeste 6 Sudoeste 0 940.2 -0.3 88
2019-12-10 06:00:00 0.6 0 Calma 6 Nordeste 0 940.2 -0.5 88
2019-12-10 05:00:00 1.5 0 Calma 10 Este 0.1 940.1 -0.5 88
2019-12-10 04:00:00 2.5 0 Calma 6 Sudeste 0 940.5 -0.6 88
2019-12-10 03:00:00 3.1 6 Este 13 Nordeste 0 940.7 -0.4 88
2019-12-10 02:00:00 2.7 3 Nordeste 10 Nordeste 0 940.6 -0.2 85
2019-12-10 01:00:00 3.7 6 Nordeste 13 Nordeste 0 941.1 0.5 75
2019-12-10 00:00:00 3.5 2 Sudeste 14 Este 0 941.1 0.2 73
2019-12-09 23:00:00 6.7 10 Este 23 Oeste 0 940.8 0.7 59
2019-12-09 22:00:00 9.9 4 Noroeste 22 Nordeste 0 940.6 0.8 30
2019-12-09 21:00:00 10 8 Nordeste 29 Nordeste 0.1 940.9 1.4 28
2019-12-09 20:00:00 10.8 17 Nordeste 32 Norte 0 940.1 1.3 27
2019-12-09 19:00:00 11.7 12 Norte 20 Norte 0 939.8 1.2 24
2019-12-09 18:00:00 11.3 4 Sur 25 Norte 0 939.5 0.9 24
2019-12-09 17:00:00 13.2 8 Norte 23 Norte 0 938.8 -0.2 21
2019-12-09 16:00:00 14.1 9 Noroeste 26 Noroeste 0 938.6 -1.1 21
2019-12-09 15:00:00 14.7 11 Norte 31 Norte 0 938.6 -1.6 20
2019-12-09 14:00:00 10.4 0 Calma 10 Oeste 0 939 -1.6 62
2019-12-09 13:00:00 8.2 3 Sudoeste 10 Sudoeste 0.1 939.7 -0.4 74
2019-12-09 12:00:00 12 0 Calma 14 Norte 0 940.2 0.8 26
2019-12-09 11:00:00 10.8 8 Norte 21 Oeste 0 940.6 1.7 30
2019-12-09 10:00:00 9.7 7 Norte 22 Norte 0 940.1 1.9 36
2019-12-09 09:00:00 4.5 0 Calma 13 Oeste 0 939.4 1.2 63
2019-12-09 08:00:00 8.1 8 Noroeste 17 Noroeste 0 938.9 0.6 44
2019-12-09 07:00:00 5.2 0 Calma 7 Norte 0 938.2 0.1 71
2019-12-09 06:00:00 6.4 2 Sudoeste 15 Noroeste 0.1 938.2 0.4 62
2019-12-09 05:00:00 8.1 4 Noroeste 15 Noroeste 0 938.3 0.7 65
2019-12-09 04:00:00 8.6 3 Sudoeste 30 Norte 0 938.1 0.8 57
2019-12-09 03:00:00 10.3 9 Noroeste 26 Noroeste 0 937.8 0.3 52
2019-12-09 02:00:00 10.6 10 Norte 32 Noroeste 0 937.6 0.4 56
2019-12-09 01:00:00 10.7 12 Norte 37 Norte 0 937.3 0.9 59
2019-12-09 00:00:00 11 14 Noroeste 25 Norte 0 937.5 0.7 66
2019-12-08 23:00:00 11.5 5 Norte 28 Oeste 0.1 937.2 1 64
2019-12-08 22:00:00 11.6 13 Noroeste 30 Noroeste 0 936.4 0.1 73
2019-12-08 21:00:00 11.7 8 Noroeste 24 Norte 0 936.8 0.7 73
2019-12-08 20:00:00 10.1 4 Norte 19 Noroeste 0 936.2 0.1 87
2019-12-08 19:00:00 5.4 0 Calma 7 Nordeste 0 936.3 0.4 87
2019-12-08 18:00:00 5.4 2 Este 7 Nordeste 0 936.1 0.1 87
2019-12-08 17:00:00 5.6 2 Este 9 Este 0.1 936.1 0.4 87
2019-12-08 16:00:00 6.2 4 Oeste 9 Sudoeste 0 935.9 -0.3 87
2019-12-08 15:00:00 6 3 Sudeste 6 Sudeste 0 936 -0.7 87
2019-12-08 14:00:00 5.8 3 Sudoeste 9 Sudoeste 0 935.7 -1.4 87
2019-12-08 13:00:00 6.8 4 Sudoeste 7 Sudoeste 0 936.2 -0.5 88
2019-12-08 12:00:00 5.8 0 Calma 8 Sudeste 0 936.7 0.5 88
2019-12-08 11:00:00 4.5 2 Sudoeste 8 Sudoeste 0.1 937.1 0.9 88
2019-12-08 10:00:00 2.5 3 Noroeste 7 Noroeste 0 936.7 1.1 88
2019-12-08 09:00:00 1.1 0 Calma 5 Sur 0 936.2 0.6 88
2019-12-08 08:00:00 1.8 0 Calma 5 Este 0 936.2 0.6 88
2019-12-08 07:00:00 2.5 3 Nordeste 8 Nordeste 0 935.6 -0.2 88
2019-12-08 06:00:00 2.8 3 Nordeste 8 Nordeste 0 935.6 -0.6 88
2019-12-08 05:00:00 3.1 3 Nordeste 7 Nordeste 0 935.6 -0.8 88
2019-12-08 04:00:00 3.7 5 Nordeste 7 Nordeste 0 935.8 -0.9 88
2019-12-08 03:00:00 2.9 3 Nordeste 7 Nordeste 0.1 936.2 -0.4 88
2019-12-08 02:00:00 3.3 0 Calma 6 Nordeste 0 936.4 0.2 87
2019-12-08 01:00:00 4 2 Norte 9 Nordeste 0 936.7 0.6 87
2019-12-08 00:00:00 3.9 3 Nordeste 10 Oeste 0 936.6 0.6 88
2019-12-07 23:00:00 4.3 0 Calma 7 Nordeste 0 936.2 0.6 87
2019-12-07 22:00:00 5.8 6 Nordeste 9 Nordeste 0 936.1 0.7 87
2019-12-07 21:00:00 5.6 5 Nordeste 7 Nordeste 0 936 1.3 86
2019-12-07 20:00:00 5 0 Calma 5 Norte 0 935.6 1 84
2019-12-07 19:00:00 6.1 0 Calma 4 Nordeste 0.1 935.4 1.1 80
2019-12-07 18:00:00 8.1 0 Calma 9 Sur 0 934.7 0.7 70
2019-12-07 17:00:00 10.9 6 Sur 12 Sudoeste 0 934.6 -0.1 58
2019-12-07 16:00:00 11.4 8 Sur 13 Sudoeste 0 934.3 -1 54
2019-12-07 15:00:00 12.7 5 Sudoeste 10 Sur 0 934 -1.8 51
2019-12-07 14:00:00 12.3 5 Sudoeste 11 Sur 0.1 934.7 -1.3 52
2019-12-07 13:00:00 11.2 5 Sudoeste 10 Sudoeste 0 935.3 -0.4 57
2019-12-07 12:00:00 10 3 Sudoeste 8 Sur 0 935.8 0.3 65
2019-12-07 11:00:00 7.6 3 Sudoeste 5 Sudoeste 0 936 1 80
2019-12-07 10:00:00 5.1 2 Sur 6 Sur 0 935.7 0.9 88
2019-12-07 09:00:00 2.5 4 Nordeste 7 Nordeste 0 935.5 0.8 88
2019-12-07 08:00:00 2.1 0 Calma 5 Nordeste 0 935 0.4 88
2019-12-07 07:00:00 2.6 0 Calma 6 Nordeste 0.1 934.8 0 88
2019-12-07 06:00:00 3.1 2 Nordeste 6 Nordeste 0 934.7 -0.2 88
2019-12-07 05:00:00 3.1 0 Calma 7 Nordeste 0 934.6 -0.3 88
2019-12-07 04:00:00 3.5 4 Nordeste 6 Nordeste 0 934.8 -0.2 88
2019-12-07 03:00:00 3.3 0 Calma 4 Nordeste 0 934.9 -0.5 88
2019-12-07 02:00:00 3.5 2 Nordeste 6 Nordeste 0 934.9 -0.4 87
2019-12-07 01:00:00 3.5 3 Nordeste 6 Nordeste 0 935 0.1 87
2019-12-07 00:00:00 4.1 0 Calma 8 Nordeste 0 935.4 0.8 87
2019-12-06 23:00:00 4.2 3 Nordeste 5 Nordeste 0.1 935.3 1.1 86
2019-12-06 22:00:00 4.2 2 Nordeste 5 Nordeste 0 934.9 1.1 85
2019-12-06 21:00:00 4.5 0 Calma 6 Nordeste 0 934.6 1.3 82
2019-12-06 20:00:00 5.7 2 Nordeste 5 Nordeste 0 934.2 1.2 78
2019-12-06 19:00:00 6.7 4 Nordeste 5 Nordeste 0 933.8 0.9 72
2019-12-06 18:00:00 8.2 0 Calma 10 Sur 0 933.3 0.3 60
2019-12-06 17:00:00 11.3 6 Sur 13 Sudeste 0 933 -0.4 49
2019-12-06 16:00:00 11.5 5 Sudeste 17 Sur 0.1 932.9 -1.2 48
2019-12-06 15:00:00 12.4 5 Nordeste 15 Sudeste 0 933 -1.7 48
2019-12-06 14:00:00 12.2 6 Sudeste 17 Este 0 933.4 -1.6 50
2019-12-06 13:00:00 10.9 8 Sudeste 16 Sudeste 0 934.1 -0.6 51
2019-12-06 12:00:00 10.8 6 Sudeste 20 Sudeste 0 934.7 0.6 54
2019-12-06 11:00:00 10.1 10 Este 18 Este 0 935 1.2 54
2019-12-06 10:00:00 9.4 5 Este 12 Este 0.1 934.7 1.1 60
2019-12-06 09:00:00 6.5 5 Nordeste 9 Nordeste 0 934.1 1.1 72
2019-12-06 08:00:00 6.9 6 Nordeste 12 Nordeste 0 933.8 1 73
2019-12-06 07:00:00 6.9 3 Nordeste 6 Nordeste 0 933.6 0.7 71
2019-12-06 06:00:00 7.2 4 Nordeste 14 Norte 0 933 0.1 69
2019-12-06 05:00:00 8.3 6 Nordeste 13 Norte 0 932.8 -0.2 64
2019-12-06 04:00:00 8.3 6 Nordeste 13 Nordeste 0 932.9 -0.3 64
2019-12-06 03:00:00 8.2 5 Este 13 Nordeste 0.1 932.9 -0.6 65
2019-12-06 02:00:00 8.4 6 Nordeste 16 Nordeste 0 933 0.1 62
2019-12-06 01:00:00 8.4 4 Nordeste 15 Nordeste 0 933.2 0.4 62
2019-12-06 00:00:00 8.6 5 Nordeste 17 Este 0 933.5 1 61
2019-12-05 23:00:00 8.6 10 Nordeste 25 Nordeste 0 932.9 1 60
2019-12-05 22:00:00 7.8 3 Este 10 Sudeste 0 932.8 1.9 68
2019-12-05 21:00:00 8 4 Nordeste 12 Nordeste 0 932.5 1.8 66
2019-12-05 20:00:00 7.2 2 Nordeste 6 Noroeste 0.1 931.9 1.7 67
2019-12-05 19:00:00 8.4 0 Calma 8 Norte 0 930.9 1.2 58
2019-12-05 18:00:00 9.9 3 Nordeste 14 Este 0 930.7 1.4 53
2019-12-05 17:00:00 10.7 8 Este 23 Este 0 930.2 1 50
2019-12-05 16:00:00 11.6 10 Este 23 Este 0 929.7 0 46
2019-12-05 15:00:00 11.1 12 Este 50 Este 0 929.3 -0.8 49
2019-12-05 14:00:00 11.3 13 Este 24 Este 0.1 929.2 -0.8 48
2019-12-05 13:00:00 11.2 9 Este 29 Este 0 929.7 0.9 48
2019-12-05 12:00:00 9.7 15 Este 30 Este 0 930.1 1.8 52
2019-12-05 11:00:00 8.1 6 Este 16 Este 0 930 2.2 68
2019-12-05 10:00:00 7.8 3 Nordeste 17 Sudeste 0 928.8 1.9 71
2019-12-05 09:00:00 6.3 4 Nordeste 6 Nordeste 0.1 928.3 2.1 87
2019-12-05 08:00:00 5.8 0 Calma 5 Noroeste 0 927.8 1.9 87
2019-12-05 07:00:00 5.9 0 Calma 9 Sudoeste 0 926.9 1 87
2019-12-05 06:00:00 5.8 0 Calma 5 Este 0 926.2 1.2 87
2019-12-05 05:00:00 5.7 0 Calma 10 Nordeste 0 925.9 1.4 86
2019-12-05 04:00:00 6.2 7 Nordeste 14 Nordeste 0 925.9 1.3 86
2019-12-05 03:00:00 6.2 0 Calma 7 Noroeste 0.1 925 1.5 88
2019-12-05 02:00:00 6.2 4 Sudoeste 9 Oeste 0 924.5 1.5 88
2019-12-05 01:00:00 6.5 5 Nordeste 8 Nordeste 0 924.6 1.5 88
2019-12-05 00:00:00 5.9 4 Nordeste 9 Nordeste 0 923.5 0.4 88
2019-12-04 23:00:00 5.6 0 Calma 5 Nordeste 0 923 0.4 88
2019-12-04 22:00:00 5.6 0 Calma 5 Nordeste 0 923.1 1 88
2019-12-04 21:00:00 5.6 0 Calma 5 Nordeste 0 923.1 1 87
2019-12-04 20:00:00 6.7 0 Calma 3 Sudeste 0.1 922.6 1.2 86
2019-12-04 19:00:00 8.1 0 Calma 11 Norte 0 922.1 1.5 83
2019-12-04 18:00:00 8.5 0 Calma 5 Norte 0 922.1 1.9 84
2019-12-04 17:00:00 9 0 Calma 13 Sudeste 0 921.4 0.6 82
2019-12-04 16:00:00 10.2 7 Sudeste 15 Noroeste 0 920.6 -1.2 62
2019-12-04 15:00:00 10.1 5 Sudoeste 24 Noroeste 0 920.2 -1.8 63
2019-12-04 14:00:00 9.2 3 Noroeste 8 Sur 0.1 920.8 -1.9 75
2019-12-04 13:00:00 9.1 6 Sudeste 9 Sudeste 0 921.8 -0.9 66
2019-12-04 12:00:00 10.1 4 Nordeste 10 Este 0 922 -0.6 64
2019-12-04 11:00:00 7.9 0 Calma 5 Sudoeste 0 922.7 0.1 82
2019-12-04 10:00:00 6.9 0 Calma 6 Norte 0 922.7 0 81
2019-12-04 09:00:00 6.6 0 Calma 6 Nordeste 0 922.6 0 78
2019-12-04 08:00:00 6.5 0 Calma 4 Este 0.1 922.6 -0.6 72
2019-12-04 07:00:00 6.7 0 Calma 6 Nordeste 0 922.7 -1.1 67
2019-12-04 06:00:00 6.5 0 Calma 9 Nordeste 0 922.6 -1.6 63
2019-12-04 05:00:00 5.9 3 Este 11 Este 0 923.2 -2 63
2019-12-04 04:00:00 5.4 3 Nordeste 11 Nordeste 0 923.8 -1.5 65
2019-12-04 03:00:00 5.7 6 Este 21 Nordeste 0 924.2 -1.6 61
2019-12-04 02:00:00 6.1 13 Este 20 Este 0 925.2 -0.8 59
2019-12-04 01:00:00 6.5 7 Este 13 Nordeste 0 925.3 -0.6 59
2019-12-04 00:00:00 6.6 4 Nordeste 14 Este 0.1 925.8 -0.1 60
2019-12-03 23:00:00 6.5 6 Este 13 Este 0 926 0.2 61
2019-12-03 22:00:00 6.5 3 Nordeste 15 Nordeste 0 925.9 0.5 66
2019-12-03 21:00:00 6.2 5 Este 15 Nordeste 0 925.9 0.7 67
2019-12-03 20:00:00 6.5 6 Este 15 Nordeste 0 925.8 0.4 64
2019-12-03 19:00:00 7.2 2 Nordeste 8 Este 0 925.4 0.3 63
2019-12-03 18:00:00 7.9 0 Calma 7 Sur 0 925.2 0 56
2019-12-03 17:00:00 8.8 4 Sur 10 Sur 0.1 925.4 -0.5 45
2019-12-03 16:00:00 9.8 4 Sudeste 11 Este 0 925.1 -1.5 42
2019-12-03 15:00:00 10.7 2 Sudoeste 13 Sudeste 0 925.2 -2.5 40
2019-12-03 14:00:00 9.8 3 Nordeste 14 Sudeste 0 925.9 -2.1 40
2019-12-03 13:00:00 8.3 8 Sudeste 18 Este 0 926.6 -1.3 42
2019-12-03 12:00:00 8.6 8 Este 17 Este 0 927.7 -0.2 41
2019-12-03 11:00:00 6.6 4 Este 9 Este 0.1 928 0.2 48
2019-12-03 10:00:00 4.3 2 Sur 6 Este 0 927.9 -0.1 69
2019-12-03 09:00:00 1.1 2 Norte 5 Nordeste 0 927.9 0 82
2019-12-03 08:00:00 1.8 0 Calma 4 Este 0 927.8 -0.3 78
2019-12-03 07:00:00 3.2 2 Nordeste 4 Este 0 928 -0.5 75
2019-12-03 06:00:00 3 0 Calma 6 Noroeste 0 927.9 -0.8 73
2019-12-03 05:00:00 4.2 4 Noroeste 6 Noroeste 0 928.1 -0.8 65
2019-12-03 04:00:00 3.9 0 Calma 7 Nordeste 0 928.5 -0.7 72
2019-12-03 03:00:00 3.6 0 Calma 7 Nordeste 0.1 928.7 -0.8 73
2019-12-03 02:00:00 2.3 0 Calma 6 Nordeste 0 928.9 -0.7 71
2019-12-03 01:00:00 2.9 0 Calma 5 Nordeste 0 929.2 -0.3 66
2019-12-03 00:00:00 4.6 3 Nordeste 10 Nordeste 0 929.5 0.1 57
2019-12-02 23:00:00 5.1 4 Nordeste 10 Nordeste 0 929.6 0.6 54
2019-12-02 22:00:00 5.8 6 Nordeste 13 Nordeste 0 929.5 0.8 54
2019-12-02 21:00:00 5.7 4 Nordeste 12 Nordeste 0 929.4 1.5 54
2019-12-02 20:00:00 6.1 5 Este 24 Nordeste 0.1 929 1.7 55
2019-12-02 19:00:00 7.4 6 Nordeste 22 Este 0 928.7 1.8 49
2019-12-02 18:00:00 8.7 12 Este 27 Nordeste 0 927.9 1.1 45
2019-12-02 17:00:00 9.4 11 Este 27 Este 0 927.3 0.2 44
2019-12-02 16:00:00 10 13 Este 31 Este 0 926.9 -0.8 43
2019-12-02 15:00:00 10.6 13 Este 36 Este 0 926.8 -1.1 41
2019-12-02 14:00:00 10.4 16 Este 36 Nordeste 0.1 927.1 -0.5 44
2019-12-02 13:00:00 9.3 23 Este 43 Este 0 927.7 0.6 45
2019-12-02 12:00:00 9.2 20 Este 39 Nordeste 0 927.9 1.4 46
2019-12-02 11:00:00 8.1 14 Este 27 Nordeste 0 927.6 1.8 49
2019-12-02 10:00:00 6.5 8 Este 14 Este 0 927.1 1.9 58
2019-12-02 09:00:00 3.7 5 Nordeste 11 Nordeste 0 926.5 1.4 74
2019-12-02 08:00:00 3.3 3 Este 17 Nordeste 0.1 925.8 0.8 77
2019-12-02 07:00:00 5.3 5 Nordeste 13 Norte 0 925.2 0.4 72
2019-12-02 06:00:00 5.2 3 Este 10 Nordeste 0 925.1 0.5 79
2019-12-02 05:00:00 5.5 4 Nordeste 10 Norte 0 925 0.7 78
2019-12-02 04:00:00 5.8 4 Nordeste 21 Nordeste 0 924.8 0.9 77
2019-12-02 03:00:00 5.9 5 Nordeste 14 Nordeste 0 924.6 0.8 83
2019-12-02 02:00:00 5.8 5 Nordeste 18 Norte 0.1 924.3 1 84
2019-12-02 01:00:00 6 7 Nordeste 24 Este 0 923.9 0.8 86
2019-12-02 00:00:00 6.2 8 Nordeste 23 Nordeste 0 923.8 0.5 86
2019-12-01 23:00:00 6 9 Nordeste 23 Nordeste 0 923.3 0.2 86
2019-12-01 22:00:00 5.7 5 Nordeste 17 Nordeste 0 923.1 0.6 86
2019-12-01 21:00:00 5.5 5 Nordeste 16 Nordeste 0 923.3 1 85
2019-12-01 20:00:00 5.5 5 Nordeste 13 Norte 0.1 923.1 1 85
2019-12-01 19:00:00 5.9 5 Nordeste 15 Nordeste 0 922.5 0.2 86
2019-12-01 18:00:00 6 4 Nordeste 13 Nordeste 0 922.3 -0.1 86
2019-12-01 17:00:00 6.1 6 Nordeste 13 Nordeste 0 922.1 -0.7 85
2019-12-01 16:00:00 6.3 6 Nordeste 14 Nordeste 0 922.3 -0.8 85
2019-12-01 15:00:00 6 7 Nordeste 19 Nordeste 0 922.4 -1.5 87
2019-12-01 14:00:00 5.8 9 Nordeste 20 Nordeste 0 922.8 -1.4 87
2019-12-01 13:00:00 5.7 9 Nordeste 21 Nordeste 0.1 923.1 -1.1 87
2019-12-01 12:00:00 5.4 11 Nordeste 18 Nordeste 0 923.9 -0.1 87
2019-12-01 11:00:00 5 7 Nordeste 15 Este 0 924.2 0.2 87
2019-12-01 10:00:00 4.8 6 Nordeste 13 Nordeste 0 924.2 0.4 86
2019-12-01 09:00:00 4.8 6 Nordeste 14 Nordeste 0 924 -0.1 86
2019-12-01 08:00:00 4.8 0 Calma 7 Este 0 924 -0.7 87
2019-12-01 07:00:00 4.7 2 Nordeste 8 Nordeste 0 923.8 -1.5 86
2019-12-01 06:00:00 5 4 Este 10 Oeste 0 924.1 -1.5 86
2019-12-01 05:00:00 5.5 6 Noroeste 10 Noroeste 0.1 924.7 -1 87
2019-12-01 04:00:00 4.6 4 Noroeste 8 Oeste 0 925.3 -1 87
2019-12-01 03:00:00 2.8 3 Nordeste 5 Nordeste 0 925.6 -0.9 84
2019-12-01 02:00:00 3.4 0 Calma 11 Noroeste 0 925.7 -1 78
2019-12-01 01:00:00 5.7 8 Noroeste 15 Norte 0 926.3 -0.4 64
2019-12-01 00:00:00 7.4 7 Norte 23 Norte 0 926.5 -0.9 54
2019-11-30 23:00:00 7.5 11 Noroeste 33 Noroeste 0 926.7 -0.8 63
2019-11-30 22:00:00 7.1 8 Noroeste 54 Norte 0 926.7 -0.1 76
2019-11-30 21:00:00 7 19 Norte 45 Norte 0 927.4 0.3 73
2019-11-30 20:00:00 8.8 15 Norte 37 Norte 0.1 927.5 0.1 75
2019-11-30 19:00:00 10.4 11 Sudoeste 27 Sur 0 926.8 -1.3 88
2019-11-30 18:00:00 10.9 15 Sudoeste 34 Sudoeste 0 927.1 -1.4 85
2019-11-30 17:00:00 10.7 12 Sudoeste 25 Sur 0 927.4 -2 86
2019-11-30 16:00:00 10.9 8 Sudoeste 30 Sudoeste 0 928.1 -2.4 84
2019-11-30 15:00:00 11.7 12 Sudoeste 28 Sudoeste 0 928.5 -2.6 78
2019-11-30 14:00:00 11.6 10 Oeste 29 Oeste 0 929.4 -2 78
2019-11-30 13:00:00 11.5 15 Sudoeste 37 Oeste 0 930.5 -1 76
2019-11-30 12:00:00 11.8 16 Oeste 39 Oeste 0.1 931.1 -0.2 77
2019-11-30 11:00:00 11.6 14 Oeste 33 Sudoeste 0 931.4 -0.1 77
2019-11-30 10:00:00 11.6 13 Oeste 34 Oeste 0 931.5 0.2 78
2019-11-30 09:00:00 11.1 11 Sudoeste 30 Sudoeste 0 931.3 -0.4 83
2019-11-30 08:00:00 11.3 6 Oeste 20 Sudoeste 0 931.5 -0.4 84
2019-11-30 07:00:00 11.2 8 Sudoeste 21 Sudoeste 0 931.3 -1 87
2019-11-30 06:00:00 11.1 4 Sudoeste 13 Oeste 0 931.7 -0.5 86
2019-11-30 05:00:00 10.8 4 Sudoeste 11 Sudoeste 0.1 931.9 -0.6 85
2019-11-30 04:00:00 11.4 5 Noroeste 21 Sudoeste 0 932.3 -0.6 85
2019-11-30 03:00:00 11.7 9 Sudoeste 19 Sudoeste 0 932.2 -0.8 84
2019-11-30 02:00:00 11.5 7 Oeste 19 Sudoeste 0 932.5 -0.5 88
2019-11-30 01:00:00 11.5 6 Sudoeste 16 Sudoeste 0 932.9 0.2 87
2019-11-30 00:00:00 11.8 3 Oeste 8 Sudoeste 0 933 0.2 87
2019-11-29 23:00:00 11.7 3 Sur 16 Sudoeste 0 933 0.3 87
2019-11-29 22:00:00 11.7 3 Sur 10 Sudoeste 0 932.7 0.1 87
2019-11-29 21:00:00 11.6 0 Calma 7 Sur 0.1 932.8 0.6 87
2019-11-29 20:00:00 11.6 0 Calma 11 Noroeste 0 932.7 0.7 86
2019-11-29 19:00:00 11.8 4 Oeste 9 Oeste 0 932.6 0.8 85
2019-11-29 18:00:00 12.1 5 Sur 10 Sudoeste 0 932.2 0.3 82
2019-11-29 17:00:00 12.7 2 Este 21 Oeste 0 932 -0.3 81
2019-11-29 16:00:00 13.3 6 Sudoeste 11 Sudoeste 0 931.8 -0.5 79
2019-11-29 15:00:00 13 5 Sudoeste 11 Sudoeste 0 931.9 -0.9 84
2019-11-29 14:00:00 12.7 6 Sudoeste 12 Sudoeste 0.1 932.3 -0.3 85
2019-11-29 13:00:00 12.5 4 Sudoeste 13 Sudoeste 0 932.3 0.1 85
2019-11-29 12:00:00 11.6 8 Sudoeste 15 Sur 0 932.8 1.5 87
2019-11-29 11:00:00 11 6 Sur 10 Sur 0 932.6 1.6 88
2019-11-29 10:00:00 11 5 Noroeste 12 Sudoeste 0 932.2 1.9 88
2019-11-29 09:00:00 10.9 6 Sudoeste 16 Oeste 0 931.3 1.2 87
2019-11-29 08:00:00 10.8 5 Sudoeste 15 Oeste 0 931 1.2 88
2019-11-29 07:00:00 10 0 Calma 12 Noroeste 0.1 930.3 0.8 87
2019-11-29 06:00:00 10.2 6 Oeste 14 Oeste 0 930.1 0.8 86
2019-11-29 05:00:00 10.5 8 Oeste 15 Oeste 0 929.8 0.6 85
2019-11-29 04:00:00 10.5 6 Noroeste 14 Oeste 0 929.5 0.5 86
2019-11-29 03:00:00 10.6 8 Oeste 21 Noroeste 0 929.3 0.5 86
2019-11-29 02:00:00 10.7 10 Oeste 20 Oeste 0 929.2 -0.1 86
2019-11-29 01:00:00 10.5 10 Oeste 26 Oeste 0 929 -0.1 86
2019-11-29 00:00:00 10.7 12 Oeste 29 Sur 0 928.8 -0.1 83
2019-11-28 23:00:00 10.9 14 Sudoeste 35 Sudoeste 0.1 929.3 0.9 82
2019-11-28 22:00:00 10.6 11 Sudoeste 34 Sudoeste 0 929.1 0.7 82
2019-11-28 21:00:00 10.6 14 Sudoeste 33 Sudoeste 0 928.9 1.1 81
2019-11-28 20:00:00 10 12 Oeste 27 Oeste 0 928.4 0.7 81
2019-11-28 19:00:00 10.3 12 Oeste 39 Oeste 0 928.4 0.6 81
2019-11-28 18:00:00 10.3 12 Oeste 32 Sudoeste 0 927.8 -0.1 82
2019-11-28 17:00:00 10.3 17 Oeste 37 Oeste 0 927.7 -0.4 76
2019-11-28 16:00:00 10.4 11 Sudoeste 24 Oeste 0 927.8 -1.2 75
2019-11-28 15:00:00 10.8 9 Sudoeste 18 Sur 0.1 927.9 -1.9 74
2019-11-28 14:00:00 10.5 10 Sudoeste 20 Sudoeste 0 928.1 -1.4 74
2019-11-28 13:00:00 10.4 9 Oeste 20 Sudoeste 0 929 -0.4 75
2019-11-28 12:00:00 9.8 8 Sudoeste 18 Oeste 0 929.8 1 81
2019-11-28 11:00:00 8.5 4 Sudoeste 17 Oeste 0 929.5 1.2 86
2019-11-28 10:00:00 8 6 Oeste 18 Oeste 0 929.4 1.5 88
2019-11-28 09:00:00 7.4 0 Calma 5 Nordeste 0 928.8 1.5 88
2019-11-28 08:00:00 6.4 0 Calma -- -- -- 928.3 1.1 87
2019-11-28 07:00:00 6.1 2 Sudoeste 14 Noroeste 0 927.9 1 87
2019-11-28 06:00:00 7.3 7 Oeste 15 Sur 0.1 927.3 0.5 86
2019-11-28 05:00:00 7.1 2 Este 18 Oeste 0 927.2 0.3 84
2019-11-28 04:00:00 7.9 8 Oeste 23 Oeste 0 926.9 -0.2 84
2019-11-28 03:00:00 8 11 Oeste 22 Oeste 0 926.8 -0.1 84
2019-11-28 02:00:00 7.9 8 Oeste 16 Oeste 0 926.9 0 84
2019-11-28 01:00:00 8 4 Noroeste 25 Oeste 0 927.1 0.9 81
2019-11-28 00:00:00 9 12 Oeste 28 Sudoeste 0 926.9 0.7 78
2019-11-27 23:00:00 9 10 Oeste 22 Noroeste 0 926.9 1.2 77
2019-11-27 22:00:00 9.4 10 Oeste 23 Sudoeste 0 926.2 0.7 75
2019-11-27 21:00:00 9.4 8 Oeste 18 Oeste 0.1 926.2 1.1 72
2019-11-27 20:00:00 9.5 10 Oeste 22 Oeste 0 925.7 1.2 72
2019-11-27 19:00:00 10.1 9 Oeste 26 Oeste 0 925.5 1.2 68
2019-11-27 18:00:00 10.1 13 Sudoeste 29 Oeste 0 925.1 0.8 67
2019-11-27 17:00:00 10.7 13 Oeste 33 Oeste 0 924.5 -0.2 63
2019-11-27 16:00:00 10.8 12 Oeste 38 Oeste 0 924.3 -0.7 61
2019-11-27 15:00:00 11.4 10 Sudoeste 25 Oeste 0 924.3 -1.5 57
2019-11-27 14:00:00 11.3 10 Oeste 23 Oeste 0 924.7 -1.1 59
2019-11-27 06:00:00 8.1 5 Noroeste 11 Noroeste 0 923.1 1.1 87
2019-11-27 05:00:00 9.3 4 Oeste 17 Oeste 0 922.6 1 85
2019-11-27 04:00:00 10.1 10 Oeste 27 Oeste 0.1 922.3 0.2 85
2019-11-27 03:00:00 10.4 14 Oeste 31 Oeste 0 922 0 85
2019-11-27 02:00:00 10.7 11 Oeste 35 Oeste 0 921.6 -0.2 84
2019-11-27 01:00:00 10.9 14 Sudoeste 44 Sudoeste 0 922.1 0.5 82
2019-11-27 00:00:00 11.6 21 Sudoeste 44 Sudoeste 0 922 -0.2 75
2019-11-26 23:00:00 11.4 19 Oeste 48 Sudoeste 0 921.8 0.1 74
2019-11-26 22:00:00 11.8 21 Sudoeste 52 Sudoeste 0 921.6 -0.2 73
2019-11-26 21:00:00 12.1 19 Sudoeste 48 Sudoeste 0.1 922.2 -0.4 84
2019-11-26 20:00:00 11.1 13 Sudoeste 24 Sudoeste 0 921.7 -1.2 87
2019-11-26 19:00:00 11.2 12 Sudoeste 18 Sudoeste 0 921.8 -1.3 88
2019-11-26 18:00:00 11.4 9 Sudoeste 32 Oeste 0 922.6 -1 86
2019-11-26 17:00:00 12.1 16 Sudoeste 36 Sudoeste 0 922.9 -1.8 78
2019-11-26 16:00:00 12.3 16 Oeste 45 Oeste 0 923.1 -2.5 74
2019-11-26 15:00:00 12.6 15 Sudoeste 39 Sudoeste 0 923.6 -2.8 72
2019-11-26 14:00:00 13.3 12 Oeste 39 Sudoeste 0 924.7 -2.4 73
2019-11-26 13:00:00 11.7 10 Sudoeste 25 Oeste 0.1 925.6 -1.2 87
2019-11-26 12:00:00 10.3 2 Sur 9 Sudoeste 0 926.4 -0.3 87
2019-11-26 11:00:00 9.4 5 Nordeste 12 Nordeste 0 927.1 0.6 88
2019-11-26 10:00:00 9.1 5 Nordeste 8 Este 0 926.8 0.7 87
2019-11-26 09:00:00 8.8 0 Calma 6 Este 0 926.7 0.1 87
2019-11-26 08:00:00 8.9 2 Este 14 Sudoeste 0 926.5 -0.5 88
2019-11-26 07:00:00 9.1 9 Sudoeste 14 Sudoeste 0 926.1 -1.3 87
2019-11-26 06:00:00 7.4 2 Norte 7 Nordeste 0 926.6 -0.8 87
2019-11-26 05:00:00 8 0 Calma 9 Sudoeste 0.1 927 -0.4 88
2019-11-26 04:00:00 7.7 0 Calma 5 Nordeste 0 927.4 -0.6 88
2019-11-26 03:00:00 6.9 3 Nordeste 7 Nordeste 0 927.4 -0.8 88
2019-11-26 02:00:00 6.2 0 Calma 4 Este 0 927.4 -1 86
2019-11-26 01:00:00 7.5 0 Calma 10 Noroeste 0 928 -0.4 81
2019-11-26 00:00:00 9 5 Noroeste 10 Norte 0 928.2 0 78
2019-11-25 23:00:00 8.1 2 Oeste 4 Sur 0 928.4 0.5 82
2019-11-25 22:00:00 9.7 5 Sudoeste 16 Norte 0 928.4 1 78
2019-11-25 21:00:00 9.7 3 Sudoeste 13 Noroeste 0 928.2 1.1 79
2019-11-25 20:00:00 10.2 4 Noroeste 12 Noroeste 0.1 927.9 1.2 78
2019-11-25 19:00:00 10.7 2 Oeste 7 Oeste 0 927.4 1.1 74
2019-11-25 18:00:00 12.1 2 Noroeste 11 Oeste 0 927.1 1 69
2019-11-25 17:00:00 13.3 5 Sudoeste 16 Sudoeste 0 926.7 0.5 61
2019-11-25 16:00:00 13.9 10 Oeste 21 Oeste 0 926.3 -0.2 57
2019-11-25 15:00:00 14.9 12 Sudoeste 26 Sudoeste 0 926.1 -0.9 55
2019-11-25 14:00:00 15.1 8 Oeste 21 Sudoeste 0 926.2 -0.8 55
2019-11-25 13:00:00 14.1 10 Sudoeste 19 Sur 0 926.5 -0.3 63
2019-11-25 12:00:00 13.9 9 Sudoeste 20 Sudoeste 0.1 927 0.2 58
2019-11-25 11:00:00 12.9 5 Sudoeste 15 Oeste 0 927 0.7 59
2019-11-25 10:00:00 9.3 3 Oeste 13 Sudoeste 0 926.8 0.8 85
2019-11-25 09:00:00 7.5 0 Calma 11 Nordeste 0 926.8 0.9 87
2019-11-25 08:00:00 8.1 6 Noroeste 11 Noroeste 0 926.3 0.6 86
2019-11-25 07:00:00 7.6 3 Oeste 17 Sudoeste 0 926 0.2 85
2019-11-25 06:00:00 8.6 7 Sur 14 Sudeste 0 925.9 0.2 84
2019-11-25 05:00:00 8.8 2 Sur 19 Oeste 0 925.7 -0.2 84
2019-11-25 04:00:00 9 12 Oeste 27 Sudoeste 0.1 925.8 -0.3 84
2019-11-25 03:00:00 8.7 12 Sudoeste 27 Oeste 0 925.7 -0.6 84
2019-11-25 02:00:00 8.8 13 Oeste 33 Oeste 0 925.9 -0.7 84
2019-11-25 01:00:00 8.3 10 Oeste 30 Oeste 0 926.1 -0.4 84
2019-11-25 00:00:00 8.2 12 Oeste 28 Oeste 0 926.3 -0.4 80
2019-11-24 23:00:00 8 6 Oeste 21 Noroeste 0 926.6 -0.3 75
2019-11-24 22:00:00 6.7 2 Sudeste 15 Sudoeste 0 926.5 -0.1 69
2019-11-24 21:00:00 8.1 3 Oeste 12 Sudoeste 0 926.7 0.2 60
2019-11-24 20:00:00 8.3 6 Sur 14 Sur 0 926.9 0.7 55
2019-11-24 19:00:00 8.3 6 Sudeste 11 Sur 0.1 926.6 0.4 52
2019-11-24 18:00:00 8.8 4 Sudoeste 17 Oeste 0 926.5 0.3 46
2019-11-24 17:00:00 9.6 8 Oeste 20 Sudoeste 0 926.2 -0.2 45
2019-11-24 16:00:00 9.9 9 Oeste 22 Sudoeste 0 926.2 -0.9 48
2019-11-24 15:00:00 11.4 12 Sudoeste 22 Norte 0 926.2 -1.9 41
2019-11-24 14:00:00 11.1 8 Noroeste 23 Noroeste 0 926.4 -1.5 35
2019-11-24 13:00:00 10.1 7 Oeste 24 Norte 0 927.1 -0.6 40
2019-11-24 12:00:00 8.4 12 Noroeste 32 Noroeste 0 928.1 1.4 45
2019-11-24 11:00:00 7.4 18 Noroeste 33 Noroeste 0 927.9 1.2 48
2019-11-24 10:00:00 6.8 10 Norte 30 Noroeste 0 927.7 1.9 51
2019-11-24 09:00:00 6.4 16 Noroeste 31 Noroeste 0 926.7 1.2 51
2019-11-24 08:00:00 5.5 7 Noroeste 20 Norte 0.1 926.7 1.7 54
2019-11-24 07:00:00 5.7 5 Noroeste 28 Noroeste 0 925.8 1 53
2019-11-24 06:00:00 6.2 13 Noroeste 27 Noroeste 0 925.5 0.7 52
2019-11-24 05:00:00 6.5 12 Noroeste 33 Norte 0 925 0.4 51
2019-11-24 04:00:00 7.1 13 Noroeste 35 Norte 0 924.8 0.7 51
2019-11-24 03:00:00 7.3 5 Noroeste 25 Oeste 0 924.8 0.9 54
2019-11-24 02:00:00 7.3 5 Noroeste 23 Oeste 0 924.6 0.8 54
2019-11-24 01:00:00 7.5 11 Noroeste 28 Oeste 0 924.1 0.7 52
2019-11-24 00:00:00 7.5 7 Noroeste 33 Oeste 0 923.9 1.5 52
2019-11-23 23:00:00 8 10 Noroeste 24 Noroeste 0.1 923.8 2.2 49
2019-11-23 22:00:00 7.7 8 Oeste 26 Noroeste 0 923.4 2.7 48
2019-11-23 21:00:00 7.8 12 Noroeste 36 Oeste 0 922.4 2.4 46
2019-11-23 20:00:00 8 17 Oeste 49 Norte 0 921.6 2.4 45
2019-11-23 19:00:00 8.5 19 Noroeste 46 Norte 0 920.7 2.5 42
2019-11-23 18:00:00 8.9 19 Noroeste 42 Norte 0 920 2.5 41
2019-11-23 17:00:00 9.6 16 Noroeste 49 Oeste 0 919.2 1.9 39
2019-11-23 16:00:00 9.9 17 Noroeste 35 Norte 0 918.2 1.4 37
2019-11-23 15:00:00 10.8 14 Noroeste 40 Noroeste 0 917.5 1 38
2019-11-23 14:00:00 10.5 20 Noroeste 41 Noroeste 0 917.3 2 38
2019-11-23 13:00:00 10 18 Noroeste 48 Oeste 0 916.8 3.1 39
2019-11-23 12:00:00 9 21 Oeste 48 Oeste 0.1 916.5 3.8 43
2019-11-23 11:00:00 8 15 Noroeste 48 Noroeste 0 915.3 3.9 45
2019-11-23 10:00:00 7.2 8 Oeste 37 Noroeste 0 913.7 4 47
2019-11-23 09:00:00 6.4 14 Noroeste 48 Oeste 0 912.7 3.8 49
2019-11-23 08:00:00 5.8 9 Noroeste 56 Oeste 0 911.4 2.7 50
2019-11-23 07:00:00 6.2 12 Noroeste 55 Oeste 0 909.7 2.2 51
2019-11-23 06:00:00 6.8 18 Oeste 46 Oeste 0 908.9 1.6 51
2019-11-23 05:00:00 7.2 14 Oeste 50 Sudoeste 0 908.7 1.8 53
2019-11-23 04:00:00 7.2 15 Oeste 51 Oeste 0 907.5 0.4 52
2019-11-23 03:00:00 6.8 12 Oeste 40 Oeste 0.1 907.3 0.6 60
2019-11-23 02:00:00 6.7 8 Oeste 31 Oeste 0 906.9 0.4 69
2019-11-23 01:00:00 7.6 8 Oeste 19 Sudoeste 0 907.1 0.3 78
2019-11-23 00:00:00 7.8 9 Sudoeste 53 Sudoeste 0 906.7 0.3 77
2019-11-22 23:00:00 8.1 22 Sudoeste 49 Sudoeste 0 906.5 0.4 74
2019-11-22 22:00:00 8.6 16 Oeste 42 Oeste 0 906.8 1.3 75
2019-11-22 21:00:00 8.8 16 Oeste 41 Sudoeste 0 906.4 1.3 76
2019-11-22 20:00:00 10.1 19 Sudoeste 42 Sudoeste 0 906.1 1.2 69
2019-11-22 19:00:00 10.3 22 Sudoeste 41 Sudoeste 0.1 905.5 0 76
2019-11-22 18:00:00 10.1 6 Oeste 39 Sudoeste 0 905.1 -1 82
2019-11-22 17:00:00 10.5 18 Oeste 35 Oeste 0 904.9 -2.4 80
2019-11-22 16:00:00 10.1 9 Sudoeste 19 Sudoeste 0 905.5 -3 88
2019-11-22 15:00:00 9.9 7 Sudoeste 19 Sudoeste 0 906.1 -4.1 88
2019-11-22 14:00:00 9.2 6 Sur 15 Sudoeste 0 907.3 -4 88
2019-11-22 13:00:00 8.6 4 Sur 15 Sudoeste 0.1 908.5 -3.8 88
2019-11-22 12:00:00 8.2 7 Sur 23 Sudeste 0 910.2 -3.5 88
2019-11-22 11:00:00 7.5 5 Sudeste 12 Nordeste 0 911.3 -3 88
2019-11-22 10:00:00 7 5 Sudeste 14 Este 0 912.3 -2.6 88
2019-11-22 09:00:00 6.6 2 Sudoeste 8 Sur 0 913.7 -2.1 88
2019-11-22 08:00:00 6.6 0 Calma 6 Sudoeste 0 914.3 -1.7 88
2019-11-22 07:00:00 6.5 0 Calma 4 Sur 0 914.9 -2 88
2019-11-22 06:00:00 6.4 2 Oeste 10 Sudoeste 0 915.8 -1.9 88
2019-11-22 05:00:00 6.3 0 Calma 10 Nordeste 0.1 916 -2.1 88
2019-11-22 04:00:00 6.2 4 Nordeste 8 Este 0 916.9 -1.9 88
2019-11-22 03:00:00 5.9 3 Este 8 Nordeste 0 917.7 -1.6 88
2019-11-22 02:00:00 5.9 0 Calma 8 Nordeste 0 918.1 -1.6 88
2019-11-22 01:00:00 5.5 5 Nordeste 8 Este 0 918.8 -1.6 88
2019-11-22 00:00:00 5.3 0 Calma 6 Nordeste 0 919.3 -0.4 88
2019-11-21 23:00:00 3.8 0 Calma -- -- 0 919.7 -0.1 88
2019-11-21 22:00:00 5 0 Calma 4 Este 0 920.4 0.7 88
2019-11-21 21:00:00 5.4 2 Este 4 Este 0 919.7 0.4 88
2019-11-21 20:00:00 6.7 2 Sur 5 Sudoeste 0.1 919.8 0.5 87
2019-11-21 19:00:00 6.8 3 Oeste 8 Oeste 0 919.7 0.2 85
2019-11-21 18:00:00 7.3 3 Sudoeste 9 Sudoeste 0 919.3 -0.1 84
2019-11-21 17:00:00 7.6 5 Sudoeste 13 Sudoeste 0 919.3 -0.5 83
2019-11-21 16:00:00 7.6 6 Sudoeste 12 Sudoeste 0 919.5 -0.6 84
2019-11-21 15:00:00 7.3 5 Sudoeste 9 Sudoeste 0 919.4 -1.4 85
2019-11-21 14:00:00 6.6 3 Sur 8 Sudoeste 0 919.8 -0.9 87
2019-11-21 13:00:00 6.7 2 Sudoeste 5 Sur 0 920.1 -0.5 88
2019-11-21 12:00:00 5.7 0 Calma 6 Sudeste 0.1 920.8 0.3 89
2019-11-21 11:00:00 5.3 0 Calma 4 Sur 0 920.7 0.8 89
2019-11-21 10:00:00 4.5 4 Nordeste 7 Nordeste 0 920.6 0.8 89
2019-11-21 09:00:00 4 2 Este 8 Nordeste 0 920.5 0.7 89
2019-11-21 08:00:00 3.8 2 Este 5 Este 0 919.9 0 89
2019-11-21 07:00:00 3.7 0 Calma 3 Nordeste 0 919.8 -0.8 89
2019-11-21 06:00:00 3.6 0 Calma 7 Nordeste 0 919.8 -0.6 89
2019-11-21 05:00:00 3.2 0 Calma 6 Nordeste 0 919.9 -0.6 89
2019-11-21 04:00:00 2.8 0 Calma 6 Nordeste 0 920.6 -0.3 89
2019-11-21 03:00:00 2.6 0 Calma 6 Nordeste 0.1 920.4 -0.4 89
2019-11-21 02:00:00 3.1 0 Calma 4 Sudoeste 0 920.5 -0.3 89
2019-11-21 01:00:00 3.4 0 Calma 4 Sur 0 920.9 -0.1 89
2019-11-21 00:00:00 3.8 0 Calma 5 Noroeste 0 920.8 0.1 89
2019-11-20 23:00:00 4.3 0 Calma 4 Sudoeste 0 920.8 0 89
2019-11-20 22:00:00 4.3 0 Calma 4 Este 0 921 0.6 88
2019-11-20 21:00:00 4.2 0 Calma 2 Sur 0 920.7 0.3 88
2019-11-20 20:00:00 4.2 0 Calma 3 Sudoeste 0 920.8 0.1 88
2019-11-20 19:00:00 4.4 0 Calma 9 Sur 0 920.4 -0.3 88
2019-11-20 18:00:00 4.7 3 Sur 5 Sudoeste 0 920.4 -0.5 87
2019-11-20 17:00:00 4.8 0 Calma 12 Oeste 0.1 920.7 -0.6 84
2019-11-20 16:00:00 5.3 0 Calma 5 Sudoeste 0 920.7 -1.4 85
2019-11-20 15:00:00 5.2 4 Sudoeste 11 Sur 0 920.9 -1.8 81
2019-11-20 14:00:00 5.9 6 Sur 13 Sur 0 921.3 -1.9 70
2019-11-20 13:00:00 6.5 5 Sudeste 10 Sudeste 0 922.1 -1.3 67
2019-11-20 12:00:00 6.4 5 Este 12 Este 0 922.7 -0.7 69
2019-11-20 11:00:00 6.2 3 Nordeste 10 Nordeste 0 923.2 0 71
2019-11-20 10:00:00 5.3 4 Nordeste 8 Este 0 923.4 0 74
2019-11-20 09:00:00 4 5 Este 9 Nordeste 0 923.4 -0.2 77
2019-11-20 08:00:00 3.2 2 Nordeste 4 Nordeste 0 923.2 -0.6 83
2019-11-20 07:00:00 2.1 0 Calma 3 Oeste 0.2 923.4 -0.8 84
2019-11-20 06:00:00 1.8 0 Calma 6 Nordeste 0 923.6 -0.9 82
2019-11-20 05:00:00 2.6 0 Calma 4 Nordeste 0 923.8 -1.2 82
2019-11-20 04:00:00 2.6 0 Calma 7 Nordeste 0 924.2 -1.2 80
2019-11-20 03:00:00 3.3 0 Calma 7 Este 0 924.5 -1.4 78
2019-11-20 02:00:00 3.2 0 Calma 6 Nordeste 0 925 -1.3 78
2019-11-20 01:00:00 3.2 0 Calma 7 Nordeste 0 925.4 -1 76
2019-11-20 00:00:00 2.8 0 Calma 8 Nordeste 0 925.9 -0.6 78
2019-11-19 23:00:00 2.9 2 Nordeste 5 Nordeste 0 926.3 -0.1 75
2019-11-19 22:00:00 4.1 6 Nordeste 8 Nordeste 0 926.4 0.2 71
2019-11-19 21:00:00 3.5 2 Nordeste 4 Nordeste 0 926.5 0.3 71
2019-11-19 20:00:00 4.2 0 Calma 4 Norte 0 926.4 0.1 64
2019-11-19 19:00:00 5.6 0 Calma 8 Oeste 0.1 926.2 -0.3 54
2019-11-19 18:00:00 6.9 3 Este 11 Sudeste 0 926.2 -0.5 49
2019-11-19 17:00:00 8.2 3 Sudoeste 15 Sudoeste 0 926.3 -1.2 47
2019-11-19 16:00:00 8.6 8 Sudoeste 20 Sudoeste 0 926.5 -1.7 47
2019-11-19 15:00:00 9.1 9 Sudoeste 17 Oeste 0 926.7 -2.3 47
2019-11-19 14:00:00 8.8 9 Sudoeste 16 Oeste 0 927.5 -1.7 46
2019-11-19 13:00:00 7.9 8 Sudoeste 14 Sudoeste 0 928.2 -1.3 51
2019-11-19 12:00:00 7.1 9 Sur 16 Sur 0 929 -0.2 51
2019-11-19 11:00:00 7.6 6 Sudoeste 12 Sudoeste 0 929.2 0.1 56
2019-11-19 10:00:00 3.3 0 Calma 9 Sudoeste 0 929.5 0.8 78
2019-11-19 09:00:00 3.5 3 Nordeste 10 Sudoeste 0.1 929.2 0.4 78
2019-11-19 08:00:00 0.2 0 Calma 9 Sur 0 929.1 0.6 82
2019-11-19 07:00:00 1 2 Sur 12 Noroeste 0 928.7 -0.2 81
2019-11-19 06:00:00 0.2 2 Noroeste 7 Noroeste 0 928.8 -0.2 82
2019-11-19 05:00:00 1.1 0 Calma 7 Sur 0 928.5 -0.5 75
2019-11-19 04:00:00 3.4 4 Sudoeste 18 Norte 0 928.9 -0.2 63
2019-11-19 03:00:00 6.3 10 Norte 30 Noroeste 0 929 -0.3 50
2019-11-19 02:00:00 6.2 13 Norte 28 Norte 0 929 -0.6 54
2019-11-19 01:00:00 6.2 10 Norte 30 Norte 0 929.1 0.1 54
2019-11-19 00:00:00 6 8 Norte 26 Norte 0 929.3 0.5 54
2019-11-18 23:00:00 6 13 Norte 25 Norte 0 929.6 1 54
2019-11-18 22:00:00 5.6 11 Norte 19 Norte 0 929 0.6 54
2019-11-18 21:00:00 6.3 8 Norte 26 Norte 0.1 928.8 0.8 52
2019-11-18 20:00:00 6.3 10 Norte 25 Norte 0 928.6 1.2 52
2019-11-18 19:00:00 6.6 12 Norte 22 Norte 0 928.4 1.3 48
2019-11-18 18:00:00 7.4 15 Norte 33 Norte 0 928 1.2 44
2019-11-18 17:00:00 8.3 14 Norte 25 Nordeste 0 927.4 0.5 44
2019-11-18 16:00:00 8.2 8 Nordeste 33 Norte 0 927.1 0.2 44
2019-11-18 15:00:00 9 7 Norte 35 Noroeste 0 926.8 -0.2 45
2019-11-18 14:00:00 7.9 9 Nordeste 34 Nordeste 0 926.9 0.3 47
2019-11-18 13:00:00 8.3 12 Nordeste 26 Norte 0 926.9 0.6 48
2019-11-18 12:00:00 8.1 9 Noroeste 27 Noroeste 0 927 1.4 53
2019-11-18 11:00:00 7 8 Noroeste 33 Noroeste 0 926.6 1.4 55
2019-11-18 10:00:00 6.6 8 Norte 19 Norte 0.1 926.3 2 58
2019-11-18 09:00:00 4.6 4 Noroeste 24 Norte 0 925.6 2.6 65
2019-11-18 08:00:00 4.3 7 Norte 27 Norte 0 925.2 1.8 63
2019-11-18 07:00:00 4.7 11 Norte 49 Norte 0 924.3 1.3 64
2019-11-18 06:00:00 4.8 30 Norte 59 Norte 0 923 -0.3 65
2019-11-18 05:00:00 4.7 10 Norte 52 Norte 0 923.4 0.6 67
2019-11-18 04:00:00 5.2 14 Norte 28 Norte 0 923 0.4 64
2019-11-18 03:00:00 5.7 9 Noroeste 28 Noroeste 0 923.3 1.1 61
2019-11-18 02:00:00 5.7 8 Oeste 36 Norte 0 922.8 0.9 61
2019-11-18 01:00:00 6 13 Noroeste 36 Noroeste 0 922.6 0.7 61
2019-11-18 00:00:00 6.3 12 Noroeste 32 Noroeste 0.1 922.2 0 60
2019-11-17 23:00:00 6.6 13 Norte 38 Nordeste 0 921.9 -0.4 60
2019-11-17 22:00:00 6.6 10 Noroeste 32 Noroeste 0 921.9 -0.3 67
2019-11-17 21:00:00 7.7 13 Noroeste 31 Noroeste 0 922.2 -0.2 67
2019-11-17 20:00:00 7 9 Noroeste 58 Norte 0 922.3 -0.5 73
2019-11-17 19:00:00 6.6 0 Calma 9 Sudoeste 0 922.2 -0.6 88
2019-11-17 18:00:00 6.4 4 Noroeste 22 Oeste 0 922.4 -1 87
2019-11-17 17:00:00 6.9 8 Oeste 19 Oeste 0 922.8 -1.1 78
2019-11-17 16:00:00 7.2 3 Sudoeste 25 Oeste 0 922.8 -1.7 75
2019-11-17 15:00:00 6.9 9 Sudoeste 17 Oeste 0 923.4 -2.3 74
2019-11-17 14:00:00 6.6 7 Noroeste 22 Oeste 0.1 923.9 -2.1 69
2019-11-17 13:00:00 6.6 8 Oeste 20 Sudoeste 0 924.5 -1.7 63
2019-11-17 12:00:00 6.1 8 Sudoeste 18 Oeste 0 925.7 -0.4 57
2019-11-17 11:00:00 5.3 10 Sudoeste 17 Sudoeste 0 926 -0.2 58
2019-11-17 10:00:00 4.7 5 Sudoeste 10 Sudoeste 0 926.2 -0.2 59
2019-11-17 09:00:00 4.1 0 Calma 3 Oeste 0 926.1 -0.2 63
2019-11-17 08:00:00 3 0 Calma 3 Noroeste 0 926.2 -0.4 65
2019-11-17 07:00:00 3.3 0 Calma 11 Oeste 0 926.4 -0.4 58
2019-11-17 06:00:00 5.3 5 Noroeste 20 Noroeste 0 926.3 -0.9 54
2019-11-17 05:00:00 5.6 13 Noroeste 24 Norte 0 926.6 -0.6 51
2019-11-17 04:00:00 5.5 13 Norte 28 Norte 0 926.8 -0.8 51
2019-11-17 03:00:00 4.8 10 Norte 23 Norte 0 927.2 -0.4 50
2019-11-17 02:00:00 4.9 8 Noroeste 23 Noroeste 0.1 927.2 -0.7 49
2019-11-17 01:00:00 5.4 9 Norte 36 Noroeste 0 927.6 -0.2 48
2019-11-17 00:00:00 5.7 15 Noroeste 35 Noroeste 0 927.6 -0.2 48
2019-11-16 23:00:00 4.6 11 Noroeste 40 Norte 0 927.9 0.2 52
2019-11-16 22:00:00 4.8 18 Norte 35 Norte 0 927.8 0.6 52
2019-11-16 21:00:00 4.9 4 Norte 31 Noroeste 0 927.8 1.3 52
2019-11-16 20:00:00 5.4 3 Noroeste 27 Noroeste 0 927.7 1.5 51
2019-11-16 19:00:00 6.2 7 Noroeste 18 Noroeste 0 927.2 1.1 45
2019-11-16 18:00:00 7 5 Oeste 22 Norte 0 926.5 0.4 42
2019-11-16 17:00:00 8.9 6 Norte 27 Nordeste 0 926.2 0.5 38
2019-11-16 16:00:00 8.6 12 Noroeste 38 Noroeste 0 926.1 0.3 37
2019-11-16 15:00:00 8.6 10 Norte 27 Nordeste 0 926.1 0 39
2019-11-16 14:00:00 8.7 6 Norte 33 Noroeste 0 925.7 -0.4 41
2019-11-16 13:00:00 7.7 14 Noroeste 38 Oeste 0.1 925.8 -0.1 45
2019-11-16 12:00:00 6.5 17 Noroeste 39 Noroeste 0 926.1 0.9 48
2019-11-16 11:00:00 5.8 18 Noroeste 39 Norte 0 926.1 1.5 52
2019-11-16 10:00:00 4.4 21 Norte 45 Norte 0 925.9 1.9 58
2019-11-16 09:00:00 3.2 8 Noroeste 18 Norte 0 925.2 2.1 63
2019-11-16 08:00:00 2.8 9 Norte 18 Norte 0 924.6 2.1 63
2019-11-16 07:00:00 3.2 3 Sudeste 41 Norte 0 924 2.3 61
2019-11-16 06:00:00 3.1 14 Norte 32 Norte 0 923.1 2.3 61
2019-11-16 05:00:00 2.8 9 Noroeste 21 Noroeste 0 922.5 1.8 61
2019-11-16 04:00:00 3.1 3 Norte 35 Norte 0 921.7 1 60
2019-11-16 03:00:00 3.6 16 Norte 43 Nordeste 0 920.8 0.3 60
2019-11-16 02:00:00 3.9 4 Nordeste 35 Noroeste 0.1 920.7 0.8 59
2019-11-16 01:00:00 4.2 12 Noroeste 31 Noroeste 0 920.7 1 60
2019-11-16 00:00:00 3.8 9 Noroeste 31 Norte 0 920.5 1.6 61
2019-11-15 23:00:00 4.3 15 Noroeste 34 Noroeste 0 919.9 1.4 58
2019-11-15 22:00:00 5.2 11 Noroeste 27 Norte 0 919.7 1.6 53
2019-11-15 21:00:00 5.4 12 Noroeste 25 Norte 0 918.9 1 52
2019-11-15 20:00:00 5.5 9 Noroeste 20 Oeste 0 918.5 1.1 51
2019-11-15 19:00:00 5.6 8 Noroeste 19 Noroeste 0 918.1 0.9 50
2019-11-15 18:00:00 6.3 7 Noroeste 16 Noroeste 0 917.9 1 48
2019-11-15 17:00:00 6.7 8 Noroeste 24 Norte 0 917.4 0.5 46
2019-11-15 16:00:00 6.9 10 Norte 33 Noroeste 0 917.2 -0.2 46
2019-11-15 15:00:00 6.9 12 Noroeste 40 Norte 0.1 916.9 -1.3 46
2019-11-15 14:00:00 7.2 12 Noroeste 33 Noroeste 0 916.9 -0.8 47
2019-11-15 13:00:00 5.9 11 Norte 31 Nordeste 0 917.4 -0.3 53
2019-11-15 12:00:00 5.2 5 Noroeste 28 Norte 0 918.2 0.9 59
2019-11-15 11:00:00 4 10 Noroeste 30 Noroeste 0 917.7 1.1 64
2019-11-15 10:00:00 4 5 Noroeste 30 Norte 0 917.7 1.5 61
2019-11-15 09:00:00 3.8 12 Noroeste 33 Noroeste 0 917.3 1.5 63
2019-11-15 08:00:00 3.6 4 Noroeste 27 Noroeste 0 916.6 1.5 64
2019-11-15 07:00:00 3 10 Noroeste 31 Oeste 0 916.2 1.1 71
2019-11-15 06:00:00 3.2 12 Oeste 39 Noroeste 0 915.8 0.8 67
2019-11-15 05:00:00 3.6 18 Noroeste 41 Noroeste 0.1 915.1 0.3 64
2019-11-15 04:00:00 3.8 8 Noroeste 36 Oeste 0 915.1 0.3 64
2019-11-15 03:00:00 3.9 14 Noroeste 41 Norte 0 915 -0.1 64
2019-11-15 02:00:00 3.9 11 Noroeste 45 Noroeste 0 914.8 -0.2 66
2019-11-15 01:00:00 4 22 Norte 43 Norte 0 914.8 0.3 67
2019-11-15 00:00:00 4.9 14 Noroeste 32 Oeste 0 915.1 1.3 61
2019-11-14 23:00:00 5.4 12 Noroeste 50 Noroeste 0 915 1.9 54
2019-11-14 22:00:00 5.6 15 Norte 53 Norte 0 914.5 1.8 55
2019-11-14 21:00:00 6.2 18 Noroeste 43 Norte 0 913.8 1.3 51
2019-11-14 20:00:00 6.3 21 Noroeste 51 Norte 0 913.1 0.8 51
2019-11-14 19:00:00 6.7 2 Oeste 44 Oeste 0 912.7 -0.2 49
2019-11-14 18:00:00 6.1 14 Noroeste 49 Noroeste 0.1 912.5 -1 54
2019-11-14 17:00:00 7.1 11 Oeste -- -- -- 912.3 -2 47
2019-11-14 16:00:00 6.3 11 Noroeste 50 Oeste 0 912.9 -2.4 48
2019-11-14 15:00:00 8 8 Oeste 38 Oeste 0 913.5 -2.9 38
2019-11-14 14:00:00 7.6 14 Noroeste 30 Oeste 0 914.3 -2.6 41
2019-11-14 13:00:00 7.7 9 Noroeste 31 Oeste 0 915.3 -1.4 44
2019-11-14 12:00:00 7.4 12 Noroeste 40 Noroeste 0 916.4 -0.5 48
2019-11-14 11:00:00 6.4 16 Noroeste 39 Oeste 0 916.9 -0.6 52
2019-11-14 10:00:00 4.6 9 Noroeste 36 Nordeste 0 916.7 0 62
2019-11-14 09:00:00 3.9 16 Norte 65 Norte 0 916.9 0.7 66
2019-11-14 08:00:00 4.3 17 Noroeste 48 Norte 0.1 917.5 0.5 71
2019-11-14 07:00:00 5.7 5 Noroeste 50 Norte 0 916.7 -1.9 82
2019-11-14 06:00:00 6.3 15 Oeste 34 Sudoeste 0 916.2 -3.4 75
2019-11-14 05:00:00 6.7 13 Sudoeste 31 Oeste 0 917 -3.5 70
2019-11-14 04:00:00 8 10 Noroeste 28 Oeste 0 918.6 -2.5 55
2019-11-14 03:00:00 8.1 8 Noroeste 28 Noroeste 0 919.6 -1.9 54
2019-11-14 02:00:00 8.8 12 Norte 31 Norte 0 920.5 -1.9 54
2019-11-14 01:00:00 10 15 Noroeste 31 Noroeste 0 921.1 -1.9 53
2019-11-14 00:00:00 10.8 8 Norte 17 Noroeste 0 921.5 -2.1 52
2019-11-13 23:00:00 9.6 7 Noroeste 13 Oeste 0.1 922.4 -1.3 56
2019-11-13 22:00:00 11.4 7 Sudoeste 14 Sudoeste 0 923 -1.3 49
2019-11-13 21:00:00 11.2 6 Oeste 15 Oeste 0 923.6 -0.6 51
2019-11-13 20:00:00 12.4 5 Noroeste 17 Norte 0 923.7 0 48
2019-11-13 19:00:00 12.7 5 Noroeste 17 Oeste 0 924.3 0.4 49
2019-11-13 18:00:00 13.7 9 Noroeste 27 Norte 0 924.2 0.2 43
2019-11-13 17:00:00 14.8 9 Noroeste 26 Norte 0 923.7 -0.1 41
2019-11-13 16:00:00 14.3 7 Noroeste 31 Norte 0 923.9 -0.6 40
2019-11-13 15:00:00 14.5 11 Norte 24 Norte 0 924 0.1 40
2019-11-13 14:00:00 14 11 Norte 27 Norte 0 923.8 0.6 41
2019-11-13 13:00:00 14.2 9 Nordeste 35 Nordeste 0 924.5 3 40
2019-11-13 12:00:00 13.5 13 Nordeste 37 Nordeste 0.1 923.9 3.3 43
2019-11-13 11:00:00 12.6 6 Noroeste 49 Noroeste 0 923.2 3.5 54
2019-11-13 10:00:00 12.7 14 Noroeste 37 Noroeste 0 921.5 2.2 63
2019-11-13 09:00:00 11.9 9 Oeste 32 Oeste 0 920.6 1.9 79
2019-11-13 08:00:00 11.6 12 Oeste 27 Oeste 0 919.7 1 79
2019-11-13 07:00:00 9.9 2 Oeste 25 Sudoeste 0 919.3 0.6 89
2019-11-13 06:00:00 9.8 15 Sudoeste 32 Sudoeste 0 918.7 -0.7 88
2019-11-13 05:00:00 9.7 16 Sudoeste 33 Sudoeste 0.1 918.7 -1.5 87
2019-11-13 04:00:00 9.6 18 Sudoeste 36 Sudoeste 0 918.7 -2.1 86
2019-11-13 03:00:00 9.3 19 Sudoeste 35 Sudoeste 0 919.4 -2.4 88
2019-11-13 02:00:00 8.9 17 Sudoeste 31 Sudoeste 0 920.2 -2.9 88
2019-11-13 01:00:00 9 13 Oeste 26 Oeste 0 920.8 -2.8 84
2019-11-13 00:00:00 8.7 14 Oeste 34 Oeste 0 921.8 -2.6 82
2019-11-12 23:00:00 8.1 11 Oeste 24 Sudoeste 0 923.1 -1.4 84
2019-11-12 22:00:00 7.5 10 Oeste 19 Oeste 0 923.6 -0.9 84
2019-11-12 21:00:00 7.7 6 Noroeste 15 Sudoeste 0 924.4 -0.3 85
2019-11-12 20:00:00 9.1 7 Oeste 15 Norte 0 924.5 -0.7 72
2019-11-12 19:00:00 10.1 6 Oeste 15 Sudoeste 0.1 924.5 -0.6 56
2019-11-12 18:00:00 11.2 5 Sudoeste 19 Oeste 0 924.7 -1.3 41
2019-11-12 17:00:00 12.3 8 Noroeste 24 Noroeste 0 925.2 -1.8 36
2019-11-12 16:00:00 11.9 11 Noroeste 28 Noroeste 0 925.1 -2.8 36
2019-11-12 15:00:00 12.2 7 Noroeste 30 Noroeste 0 926 -2.8 39
2019-11-12 14:00:00 10.7 12 Noroeste 30 Norte 0 927 -1.1 41
2019-11-12 13:00:00 10 5 Norte 28 Noroeste 0 927.9 -1.1 45
2019-11-12 12:00:00 8.7 5 Norte 33 Norte 0 928.8 0.1 49
2019-11-12 11:00:00 7.3 17 Norte 35 Norte 0 928.1 0.1 57
2019-11-12 10:00:00 6.7 14 Norte 26 Norte 0 929 1.4 62
2019-11-12 09:00:00 6.1 8 Norte 23 Norte 0 928.7 1 62
2019-11-12 08:00:00 4.7 4 Norte 12 Norte 0 928 -0.2 68
2019-11-12 07:00:00 4.4 5 Norte 11 Noroeste 0 927.6 -1.1 66
2019-11-12 06:00:00 5.7 3 Norte 27 Norte 0.1 927.7 -1.1 62
2019-11-12 05:00:00 6 8 Norte 24 Nordeste 0 928.2 -1.3 62
2019-11-12 04:00:00 5.7 6 Noroeste 21 Norte 0 928.7 -1.2 66
2019-11-12 03:00:00 6.1 8 Norte 17 Norte 0 928.8 -0.9 63
2019-11-12 02:00:00 5.7 0 Calma 17 Norte 0 929.5 0.2 63
2019-11-12 01:00:00 6 10 Norte 14 Norte 0 929.9 0.6 66
2019-11-12 00:00:00 4.7 3 Sur 16 Norte 0 929.7 0.7 70